sensor_id;sensor_type;location;lat;lon;timestamp;P1;durP1;ratioP1;P2;durP2;ratioP2
35150;SDS011;55720;51.972;4.624;2023-07-20T00:00:33;14.07;;;8.37;;
35150;SDS011;55720;51.972;4.624;2023-07-20T00:03:14;13.47;;;8.37;;
35150;SDS011;55720;51.972;4.624;2023-07-20T00:05:42;14.77;;;9.25;;
35150;SDS011;55720;51.972;4.624;2023-07-20T00:08:07;14.63;;;9.23;;
35150;SDS011;55720;51.972;4.624;2023-07-20T00:10:33;15.10;;;9.93;;
35150;SDS011;55720;51.972;4.624;2023-07-20T00:12:58;14.70;;;9.55;;
35150;SDS011;55720;51.972;4.624;2023-07-20T00:15:23;15.47;;;9.60;;
35150;SDS011;55720;51.972;4.624;2023-07-20T00:17:48;18.53;;;9.90;;
35150;SDS011;55720;51.972;4.624;2023-07-20T00:20:14;15.23;;;10.03;;
35150;SDS011;55720;51.972;4.624;2023-07-20T00:22:39;24.20;;;10.60;;
35150;SDS011;55720;51.972;4.624;2023-07-20T00:25:04;13.87;;;10.13;;
35150;SDS011;55720;51.972;4.624;2023-07-20T00:27:30;18.80;;;11.02;;
35150;SDS011;55720;51.972;4.624;2023-07-20T00:29:55;19.83;;;12.00;;
35150;SDS011;55720;51.972;4.624;2023-07-20T00:32:20;21.07;;;11.77;;
35150;SDS011;55720;51.972;4.624;2023-07-20T00:34:45;18.00;;;12.50;;
35150;SDS011;55720;51.972;4.624;2023-07-20T00:37:10;15.37;;;11.80;;
35150;SDS011;55720;51.972;4.624;2023-07-20T00:39:36;18.88;;;12.15;;
35150;SDS011;55720;51.972;4.624;2023-07-20T00:42:01;17.57;;;10.77;;
35150;SDS011;55720;51.972;4.624;2023-07-20T00:44:26;13.75;;;9.65;;
35150;SDS011;55720;51.972;4.624;2023-07-20T00:46:51;11.27;;;8.93;;
35150;SDS011;55720;51.972;4.624;2023-07-20T00:49:17;8.90;;;7.07;;
35150;SDS011;55720;51.972;4.624;2023-07-20T00:51:46;8.88;;;6.13;;
35150;SDS011;55720;51.972;4.624;2023-07-20T00:54:11;5.53;;;4.95;;
35150;SDS011;55720;51.972;4.624;2023-07-20T00:56:37;7.60;;;4.63;;
35150;SDS011;55720;51.972;4.624;2023-07-20T00:59:02;6.63;;;4.93;;
35150;SDS011;55720;51.972;4.624;2023-07-20T01:01:27;6.55;;;4.93;;
35150;SDS011;55720;51.972;4.624;2023-07-20T01:03:52;4.50;;;4.10;;
35150;SDS011;55720;51.972;4.624;2023-07-20T01:06:30;4.70;;;4.30;;
35150;SDS011;55720;51.972;4.624;2023-07-20T01:13:49;6.10;;;4.53;;
35150;SDS011;55720;51.972;4.624;2023-07-20T01:16:15;5.72;;;5.00;;
35150;SDS011;55720;51.972;4.624;2023-07-20T01:18:40;5.10;;;4.40;;
35150;SDS011;55720;51.972;4.624;2023-07-20T01:21:09;4.85;;;4.32;;
35150;SDS011;55720;51.972;4.624;2023-07-20T01:31:24;7.27;;;4.77;;
35150;SDS011;55720;51.972;4.624;2023-07-20T01:33:50;6.63;;;5.95;;
35150;SDS011;55720;51.972;4.624;2023-07-20T01:36:17;8.25;;;5.25;;
35150;SDS011;55720;51.972;4.624;2023-07-20T01:38:43;9.38;;;4.85;;
35150;SDS011;55720;51.972;4.624;2023-07-20T01:41:09;6.03;;;4.47;;
35150;SDS011;55720;51.972;4.624;2023-07-20T01:43:35;9.88;;;4.93;;
35150;SDS011;55720;51.972;4.624;2023-07-20T01:46:00;5.78;;;5.20;;
35150;SDS011;55720;51.972;4.624;2023-07-20T01:48:25;10.73;;;4.93;;
35150;SDS011;55720;51.972;4.624;2023-07-20T01:50:50;5.07;;;4.60;;
35150;SDS011;55720;51.972;4.624;2023-07-20T01:53:16;7.10;;;5.13;;
35150;SDS011;55720;51.972;4.624;2023-07-20T01:55:41;6.00;;;5.00;;
35150;SDS011;55720;51.972;4.624;2023-07-20T01:58:06;8.45;;;5.18;;
35150;SDS011;55720;51.972;4.624;2023-07-20T02:00:32;7.65;;;4.95;;
35150;SDS011;55720;51.972;4.624;2023-07-20T02:02:57;5.17;;;4.77;;
35150;SDS011;55720;51.972;4.624;2023-07-20T02:05:22;7.13;;;4.63;;
35150;SDS011;55720;51.972;4.624;2023-07-20T02:07:47;5.83;;;4.97;;
35150;SDS011;55720;51.972;4.624;2023-07-20T02:10:12;8.33;;;5.10;;
35150;SDS011;55720;51.972;4.624;2023-07-20T02:12:38;5.50;;;4.97;;
35150;SDS011;55720;51.972;4.624;2023-07-20T02:15:03;7.50;;;5.37;;
35150;SDS011;55720;51.972;4.624;2023-07-20T02:17:28;7.15;;;5.53;;
35150;SDS011;55720;51.972;4.624;2023-07-20T02:19:54;9.82;;;5.88;;
35150;SDS011;55720;51.972;4.624;2023-07-20T02:22:20;11.23;;;6.18;;
35150;SDS011;55720;51.972;4.624;2023-07-20T02:24:45;9.18;;;6.32;;
35150;SDS011;55720;51.972;4.624;2023-07-20T02:27:10;7.47;;;6.77;;
35150;SDS011;55720;51.972;4.624;2023-07-20T02:29:35;10.93;;;7.03;;
35150;SDS011;55720;51.972;4.624;2023-07-20T02:32:01;8.23;;;6.40;;
35150;SDS011;55720;51.972;4.624;2023-07-20T02:34:26;11.25;;;7.32;;
35150;SDS011;55720;51.972;4.624;2023-07-20T02:36:51;9.77;;;6.73;;
35150;SDS011;55720;51.972;4.624;2023-07-20T02:39:17;7.70;;;6.88;;
35150;SDS011;55720;51.972;4.624;2023-07-20T02:41:42;13.80;;;7.50;;
35150;SDS011;55720;51.972;4.624;2023-07-20T02:44:07;10.10;;;7.70;;
35150;SDS011;55720;51.972;4.624;2023-07-20T02:46:33;10.20;;;7.78;;
35150;SDS011;55720;51.972;4.624;2023-07-20T02:48:59;10.27;;;6.85;;
35150;SDS011;55720;51.972;4.624;2023-07-20T02:51:24;10.50;;;6.90;;
35150;SDS011;55720;51.972;4.624;2023-07-20T02:53:49;10.60;;;6.97;;
35150;SDS011;55720;51.972;4.624;2023-07-20T02:56:15;11.77;;;7.45;;
35150;SDS011;55720;51.972;4.624;2023-07-20T02:58:41;11.48;;;7.65;;
35150;SDS011;55720;51.972;4.624;2023-07-20T03:01:08;10.50;;;6.85;;
35150;SDS011;55720;51.972;4.624;2023-07-20T03:03:34;9.20;;;7.30;;
35150;SDS011;55720;51.972;4.624;2023-07-20T03:06:03;8.90;;;6.97;;
35150;SDS011;55720;51.972;4.624;2023-07-20T03:08:29;11.35;;;6.82;;
35150;SDS011;55720;51.972;4.624;2023-07-20T03:10:54;10.47;;;6.27;;
35150;SDS011;55720;51.972;4.624;2023-07-20T03:13:19;9.00;;;6.68;;
35150;SDS011;55720;51.972;4.624;2023-07-20T03:15:44;10.87;;;6.70;;
35150;SDS011;55720;51.972;4.624;2023-07-20T03:18:09;10.55;;;7.80;;
35150;SDS011;55720;51.972;4.624;2023-07-20T03:20:35;9.63;;;6.45;;
35150;SDS011;55720;51.972;4.624;2023-07-20T03:23:00;9.73;;;6.90;;
35150;SDS011;55720;51.972;4.624;2023-07-20T03:25:26;9.80;;;6.40;;
35150;SDS011;55720;51.972;4.624;2023-07-20T03:27:51;10.87;;;6.63;;
35150;SDS011;55720;51.972;4.624;2023-07-20T03:30:16;10.50;;;6.63;;
35150;SDS011;55720;51.972;4.624;2023-07-20T03:32:41;12.02;;;6.82;;
35150;SDS011;55720;51.972;4.624;2023-07-20T03:35:07;11.80;;;7.17;;
35150;SDS011;55720;51.972;4.624;2023-07-20T03:37:33;9.63;;;6.35;;
35150;SDS011;55720;51.972;4.624;2023-07-20T03:40:00;12.05;;;6.88;;
35150;SDS011;55720;51.972;4.624;2023-07-20T03:42:25;10.18;;;6.28;;
35150;SDS011;55720;51.972;4.624;2023-07-20T03:44:50;9.07;;;6.33;;
35150;SDS011;55720;51.972;4.624;2023-07-20T03:47:16;10.30;;;6.85;;
35150;SDS011;55720;51.972;4.624;2023-07-20T03:49:41;9.57;;;6.20;;
35150;SDS011;55720;51.972;4.624;2023-07-20T03:52:07;10.05;;;6.45;;
35150;SDS011;55720;51.972;4.624;2023-07-20T03:54:32;8.63;;;6.55;;
35150;SDS011;55720;51.972;4.624;2023-07-20T03:56:57;10.40;;;7.30;;
35150;SDS011;55720;51.972;4.624;2023-07-20T03:59:23;9.02;;;6.57;;
35150;SDS011;55720;51.972;4.624;2023-07-20T04:01:48;8.45;;;6.13;;
35150;SDS011;55720;51.972;4.624;2023-07-20T04:04:15;10.97;;;6.40;;
35150;SDS011;55720;51.972;4.624;2023-07-20T04:06:40;7.18;;;6.47;;
35150;SDS011;55720;51.972;4.624;2023-07-20T04:09:06;8.00;;;6.50;;
35150;SDS011;55720;51.972;4.624;2023-07-20T04:11:31;9.07;;;6.10;;
35150;SDS011;55720;51.972;4.624;2023-07-20T04:13:56;9.73;;;6.05;;
35150;SDS011;55720;51.972;4.624;2023-07-20T04:16:21;10.88;;;6.70;;
35150;SDS011;55720;51.972;4.624;2023-07-20T04:18:47;9.35;;;6.15;;
35150;SDS011;55720;51.972;4.624;2023-07-20T04:21:12;11.77;;;6.73;;
35150;SDS011;55720;51.972;4.624;2023-07-20T04:23:37;9.90;;;6.30;;
35150;SDS011;55720;51.972;4.624;2023-07-20T04:26:02;7.90;;;6.70;;
35150;SDS011;55720;51.972;4.624;2023-07-20T04:28:28;9.70;;;7.30;;
35150;SDS011;55720;51.972;4.624;2023-07-20T04:30:53;10.10;;;7.07;;
35150;SDS011;55720;51.972;4.624;2023-07-20T04:33:18;10.18;;;7.60;;
35150;SDS011;55720;51.972;4.624;2023-07-20T04:35:44;11.43;;;6.70;;
35150;SDS011;55720;51.972;4.624;2023-07-20T04:38:10;7.78;;;6.47;;
35150;SDS011;55720;51.972;4.624;2023-07-20T04:40:35;7.57;;;5.33;;
35150;SDS011;55720;51.972;4.624;2023-07-20T04:43:00;8.90;;;5.17;;
35150;SDS011;55720;51.972;4.624;2023-07-20T04:45:25;8.18;;;4.60;;
35150;SDS011;55720;51.972;4.624;2023-07-20T04:47:51;6.90;;;3.63;;
35150;SDS011;55720;51.972;4.624;2023-07-20T04:50:16;2.80;;;2.60;;
35150;SDS011;55720;51.972;4.624;2023-07-20T04:52:41;2.83;;;2.23;;
35150;SDS011;55720;51.972;4.624;2023-07-20T04:55:06;4.60;;;1.60;;
35150;SDS011;55720;51.972;4.624;2023-07-20T04:57:32;6.85;;;1.30;;
35150;SDS011;55720;51.972;4.624;2023-07-20T04:59:57;2.15;;;1.40;;
35150;SDS011;55720;51.972;4.624;2023-07-20T05:02:22;1.03;;;0.87;;
35150;SDS011;55720;51.972;4.624;2023-07-20T05:04:48;1.40;;;1.00;;
35150;SDS011;55720;51.972;4.624;2023-07-20T05:07:13;0.80;;;0.80;;
35150;SDS011;55720;51.972;4.624;2023-07-20T05:09:38;2.70;;;0.90;;
35150;SDS011;55720;51.972;4.624;2023-07-20T05:12:03;1.50;;;0.93;;
35150;SDS011;55720;51.972;4.624;2023-07-20T05:14:29;0.90;;;0.85;;
35150;SDS011;55720;51.972;4.624;2023-07-20T05:16:54;0.70;;;0.70;;
35150;SDS011;55720;51.972;4.624;2023-07-20T05:19:19;2.20;;;0.60;;
35150;SDS011;55720;51.972;4.624;2023-07-20T05:21:44;1.43;;;0.80;;
35150;SDS011;55720;51.972;4.624;2023-07-20T05:24:10;0.73;;;0.57;;
35150;SDS011;55720;51.972;4.624;2023-07-20T05:26:35;2.13;;;0.70;;
35150;SDS011;55720;51.972;4.624;2023-07-20T05:29:00;0.87;;;0.67;;
35150;SDS011;55720;51.972;4.624;2023-07-20T05:31:25;1.90;;;0.90;;
35150;SDS011;55720;51.972;4.624;2023-07-20T05:33:51;1.70;;;0.93;;
35150;SDS011;55720;51.972;4.624;2023-07-20T05:36:16;3.40;;;0.90;;
35150;SDS011;55720;51.972;4.624;2023-07-20T05:38:41;1.87;;;0.77;;
35150;SDS011;55720;51.972;4.624;2023-07-20T05:41:06;1.77;;;0.90;;
35150;SDS011;55720;51.972;4.624;2023-07-20T05:43:35;2.22;;;1.00;;
35150;SDS011;55720;51.972;4.624;2023-07-20T05:46:00;1.40;;;1.20;;
35150;SDS011;55720;51.972;4.624;2023-07-20T05:48:25;2.77;;;1.77;;
35150;SDS011;55720;51.972;4.624;2023-07-20T05:50:50;2.00;;;1.50;;
35150;SDS011;55720;51.972;4.624;2023-07-20T05:53:16;1.50;;;1.40;;
35150;SDS011;55720;51.972;4.624;2023-07-20T05:55:41;1.73;;;1.63;;
35150;SDS011;55720;51.972;4.624;2023-07-20T05:58:06;1.88;;;1.60;;
35150;SDS011;55720;51.972;4.624;2023-07-20T06:00:32;1.70;;;1.60;;
35150;SDS011;55720;51.972;4.624;2023-07-20T06:02:57;1.70;;;1.60;;
35150;SDS011;55720;51.972;4.624;2023-07-20T06:05:22;1.60;;;1.50;;
35150;SDS011;55720;51.972;4.624;2023-07-20T06:07:48;1.58;;;0.90;;
35150;SDS011;55720;51.972;4.624;2023-07-20T06:10:14;4.85;;;0.90;;
35150;SDS011;55720;51.972;4.624;2023-07-20T06:12:39;2.30;;;0.70;;
35150;SDS011;55720;51.972;4.624;2023-07-20T06:15:04;1.60;;;0.50;;
35150;SDS011;55720;51.972;4.624;2023-07-20T06:17:30;1.10;;;0.68;;
35150;SDS011;55720;51.972;4.624;2023-07-20T06:19:55;1.27;;;0.40;;
35150;SDS011;55720;51.972;4.624;2023-07-20T06:22:20;0.90;;;0.40;;
35150;SDS011;55720;51.972;4.624;2023-07-20T06:24:46;1.00;;;0.53;;
35150;SDS011;55720;51.972;4.624;2023-07-20T06:27:11;1.37;;;0.43;;
35150;SDS011;55720;51.972;4.624;2023-07-20T06:29:37;0.70;;;0.35;;
35150;SDS011;55720;51.972;4.624;2023-07-20T06:32:02;0.60;;;0.37;;
35150;SDS011;55720;51.972;4.624;2023-07-20T06:34:27;0.55;;;0.52;;
35150;SDS011;55720;51.972;4.624;2023-07-20T06:36:53;1.85;;;0.43;;
35150;SDS011;55720;51.972;4.624;2023-07-20T06:39:18;0.87;;;0.40;;
35150;SDS011;55720;51.972;4.624;2023-07-20T06:41:43;1.73;;;0.40;;
35150;SDS011;55720;51.972;4.624;2023-07-20T06:44:08;0.27;;;0.27;;
35150;SDS011;55720;51.972;4.624;2023-07-20T06:46:34;0.82;;;0.35;;
35150;SDS011;55720;51.972;4.624;2023-07-20T06:48:59;0.20;;;0.20;;
35150;SDS011;55720;51.972;4.624;2023-07-20T06:51:24;0.93;;;0.40;;
35150;SDS011;55720;51.972;4.624;2023-07-20T06:53:49;0.40;;;0.40;;
35150;SDS011;55720;51.972;4.624;2023-07-20T06:56:14;0.43;;;0.30;;
35150;SDS011;55720;51.972;4.624;2023-07-20T06:58:40;0.93;;;0.60;;
35150;SDS011;55720;51.972;4.624;2023-07-20T07:01:05;0.87;;;0.30;;
35150;SDS011;55720;51.972;4.624;2023-07-20T07:03:31;5.45;;;0.40;;
35150;SDS011;55720;51.972;4.624;2023-07-20T07:05:56;0.53;;;0.20;;
35150;SDS011;55720;51.972;4.624;2023-07-20T07:08:22;1.00;;;0.50;;
35150;SDS011;55720;51.972;4.624;2023-07-20T07:10:47;0.53;;;0.30;;
35150;SDS011;55720;51.972;4.624;2023-07-20T07:13:12;0.97;;;0.50;;
35150;SDS011;55720;51.972;4.624;2023-07-20T07:15:37;0.80;;;0.40;;
35150;SDS011;55720;51.972;4.624;2023-07-20T07:18:03;1.33;;;1.23;;
35150;SDS011;55720;51.972;4.624;2023-07-20T07:20:28;0.55;;;0.47;;
35150;SDS011;55720;51.972;4.624;2023-07-20T07:22:53;1.80;;;0.40;;
35150;SDS011;55720;51.972;4.624;2023-07-20T07:25:20;2.67;;;0.50;;
35150;SDS011;55720;51.972;4.624;2023-07-20T07:27:45;0.87;;;0.50;;
35150;SDS011;55720;51.972;4.624;2023-07-20T07:30:11;0.77;;;0.30;;
35150;SDS011;55720;51.972;4.624;2023-07-20T07:32:36;0.57;;;0.32;;
35150;SDS011;55720;51.972;4.624;2023-07-20T07:35:02;2.10;;;0.47;;
35150;SDS011;55720;51.972;4.624;2023-07-20T07:37:27;0.40;;;0.30;;
35150;SDS011;55720;51.972;4.624;2023-07-20T07:39:52;3.07;;;0.23;;
35150;SDS011;55720;51.972;4.624;2023-07-20T07:42:17;1.10;;;0.33;;
35150;SDS011;55720;51.972;4.624;2023-07-20T07:44:43;1.90;;;0.38;;
35150;SDS011;55720;51.972;4.624;2023-07-20T07:47:09;0.95;;;0.30;;
35150;SDS011;55720;51.972;4.624;2023-07-20T07:49:34;0.93;;;0.50;;
35150;SDS011;55720;51.972;4.624;2023-07-20T07:52:00;0.53;;;0.40;;
35150;SDS011;55720;51.972;4.624;2023-07-20T07:54:27;0.43;;;0.40;;
35150;SDS011;55720;51.972;4.624;2023-07-20T07:56:52;1.80;;;0.47;;
35150;SDS011;55720;51.972;4.624;2023-07-20T07:59:18;0.87;;;0.40;;
35150;SDS011;55720;51.972;4.624;2023-07-20T08:01:43;0.47;;;0.33;;
35150;SDS011;55720;51.972;4.624;2023-07-20T08:04:08;0.57;;;0.30;;
35150;SDS011;55720;51.972;4.624;2023-07-20T08:06:33;0.53;;;0.40;;
35150;SDS011;55720;51.972;4.624;2023-07-20T08:08:59;1.00;;;0.40;;
35150;SDS011;55720;51.972;4.624;2023-07-20T08:11:24;0.80;;;0.50;;
35150;SDS011;55720;51.972;4.624;2023-07-20T08:13:49;0.90;;;0.60;;
35150;SDS011;55720;51.972;4.624;2023-07-20T08:16:14;1.27;;;0.50;;
35150;SDS011;55720;51.972;4.624;2023-07-20T08:18:39;1.77;;;0.40;;
35150;SDS011;55720;51.972;4.624;2023-07-20T08:21:05;1.07;;;0.30;;
35150;SDS011;55720;51.972;4.624;2023-07-20T08:23:30;1.60;;;0.50;;
35150;SDS011;55720;51.972;4.624;2023-07-20T08:25:55;2.20;;;0.60;;
35150;SDS011;55720;51.972;4.624;2023-07-20T08:28:20;1.33;;;0.60;;
35150;SDS011;55720;51.972;4.624;2023-07-20T08:30:46;1.50;;;0.50;;
35150;SDS011;55720;51.972;4.624;2023-07-20T08:33:15;0.55;;;0.50;;
35150;SDS011;55720;51.972;4.624;2023-07-20T08:35:41;3.50;;;0.60;;
35150;SDS011;55720;51.972;4.624;2023-07-20T08:38:07;1.05;;;0.90;;
35150;SDS011;55720;51.972;4.624;2023-07-20T08:40:33;4.30;;;0.93;;
35150;SDS011;55720;51.972;4.624;2023-07-20T08:42:59;1.48;;;0.63;;
35150;SDS011;55720;51.972;4.624;2023-07-20T08:45:25;0.60;;;0.40;;
35150;SDS011;55720;51.972;4.624;2023-07-20T08:47:51;1.48;;;0.50;;
35150;SDS011;55720;51.972;4.624;2023-07-20T08:50:17;0.85;;;0.70;;
35150;SDS011;55720;51.972;4.624;2023-07-20T08:52:42;1.13;;;0.70;;
35150;SDS011;55720;51.972;4.624;2023-07-20T08:55:07;1.97;;;0.77;;
35150;SDS011;55720;51.972;4.624;2023-07-20T08:57:33;1.70;;;0.75;;
35150;SDS011;55720;51.972;4.624;2023-07-20T09:00:00;0.70;;;0.70;;
35150;SDS011;55720;51.972;4.624;2023-07-20T09:02:26;1.75;;;0.73;;
35150;SDS011;55720;51.972;4.624;2023-07-20T09:04:52;2.00;;;0.73;;
35150;SDS011;55720;51.972;4.624;2023-07-20T09:07:17;1.20;;;0.68;;
35150;SDS011;55720;51.972;4.624;2023-07-20T09:09:43;0.50;;;0.45;;
35150;SDS011;55720;51.972;4.624;2023-07-20T09:12:15;0.97;;;0.60;;
35150;SDS011;55720;51.972;4.624;2023-07-20T09:14:43;1.98;;;0.65;;
35150;SDS011;55720;51.972;4.624;2023-07-20T09:17:12;0.63;;;0.50;;
35150;SDS011;55720;51.972;4.624;2023-07-20T09:19:37;2.38;;;0.77;;
35150;SDS011;55720;51.972;4.624;2023-07-20T09:22:03;1.80;;;0.80;;
35150;SDS011;55720;51.972;4.624;2023-07-20T09:24:30;0.60;;;0.50;;
35150;SDS011;55720;51.972;4.624;2023-07-20T09:26:56;1.17;;;0.70;;
35150;SDS011;55720;51.972;4.624;2023-07-20T09:29:22;2.83;;;0.70;;
35150;SDS011;55720;51.972;4.624;2023-07-20T09:31:59;0.60;;;0.57;;
35150;SDS011;55720;51.972;4.624;2023-07-20T09:34:28;0.93;;;0.70;;
35150;SDS011;55720;51.972;4.624;2023-07-20T09:36:53;1.67;;;0.50;;
35150;SDS011;55720;51.972;4.624;2023-07-20T09:39:19;2.47;;;0.80;;
35150;SDS011;55720;51.972;4.624;2023-07-20T09:41:45;1.98;;;0.70;;
35150;SDS011;55720;51.972;4.624;2023-07-20T09:44:10;2.77;;;0.60;;
35150;SDS011;55720;51.972;4.624;2023-07-20T09:46:42;0.98;;;0.63;;
35150;SDS011;55720;51.972;4.624;2023-07-20T09:49:11;2.50;;;0.93;;
35150;SDS011;55720;51.972;4.624;2023-07-20T09:51:37;3.97;;;0.80;;
35150;SDS011;55720;51.972;4.624;2023-07-20T09:54:02;1.67;;;0.70;;
35150;SDS011;55720;51.972;4.624;2023-07-20T09:56:28;1.20;;;1.02;;
35150;SDS011;55720;51.972;4.624;2023-07-20T09:58:55;1.00;;;0.90;;
35150;SDS011;55720;51.972;4.624;2023-07-20T10:01:20;1.67;;;0.90;;
35150;SDS011;55720;51.972;4.624;2023-07-20T10:03:47;1.02;;;0.60;;
35150;SDS011;55720;51.972;4.624;2023-07-20T10:06:13;2.43;;;0.53;;
35150;SDS011;55720;51.972;4.624;2023-07-20T10:08:40;0.63;;;0.40;;
35150;SDS011;55720;51.972;4.624;2023-07-20T10:11:06;0.45;;;0.32;;
35150;SDS011;55720;51.972;4.624;2023-07-20T10:13:32;1.85;;;0.40;;
35150;SDS011;55720;51.972;4.624;2023-07-20T10:16:20;0.40;;;0.40;;
35150;SDS011;55720;51.972;4.624;2023-07-20T10:18:50;0.73;;;0.50;;
35150;SDS011;55720;51.972;4.624;2023-07-20T10:21:17;0.73;;;0.38;;
35150;SDS011;55720;51.972;4.624;2023-07-20T10:23:42;0.60;;;0.60;;
35150;SDS011;55720;51.972;4.624;2023-07-20T10:26:08;0.60;;;0.50;;
35150;SDS011;55720;51.972;4.624;2023-07-20T10:28:34;0.98;;;0.52;;
35150;SDS011;55720;51.972;4.624;2023-07-20T10:30:59;2.17;;;0.60;;
35150;SDS011;55720;51.972;4.624;2023-07-20T10:33:24;1.23;;;0.50;;
35150;SDS011;55720;51.972;4.624;2023-07-20T10:38:18;0.88;;;0.80;;
35150;SDS011;55720;51.972;4.624;2023-07-20T10:40:43;1.75;;;0.80;;
35150;SDS011;55720;51.972;4.624;2023-07-20T10:43:18;2.13;;;0.70;;
35150;SDS011;55720;51.972;4.624;2023-07-20T10:50:44;1.05;;;0.63;;
35150;SDS011;55720;51.972;4.624;2023-07-20T10:53:16;0.60;;;0.60;;
35150;SDS011;55720;51.972;4.624;2023-07-20T10:55:42;0.55;;;0.50;;
35150;SDS011;55720;51.972;4.624;2023-07-20T10:58:09;1.10;;;0.50;;
35150;SDS011;55720;51.972;4.624;2023-07-20T11:00:35;0.90;;;0.55;;
35150;SDS011;55720;51.972;4.624;2023-07-20T11:03:00;1.35;;;0.60;;
35150;SDS011;55720;51.972;4.624;2023-07-20T11:05:35;0.90;;;0.47;;
35150;SDS011;55720;51.972;4.624;2023-07-20T11:08:03;0.60;;;0.50;;
35150;SDS011;55720;51.972;4.624;2023-07-20T11:10:28;2.83;;;0.52;;
35150;SDS011;55720;51.972;4.624;2023-07-20T11:16:11;2.28;;;0.60;;
35150;SDS011;55720;51.972;4.624;2023-07-20T11:18:29;0.82;;;0.65;;
35150;SDS011;55720;51.972;4.624;2023-07-20T11:20:56;0.80;;;0.60;;
35150;SDS011;55720;51.972;4.624;2023-07-20T11:23:21;0.50;;;0.50;;
35150;SDS011;55720;51.972;4.624;2023-07-20T11:25:47;1.58;;;0.52;;
35150;SDS011;55720;51.972;4.624;2023-07-20T11:28:12;2.73;;;0.50;;
35150;SDS011;55720;51.972;4.624;2023-07-20T11:30:38;0.83;;;0.60;;
35150;SDS011;55720;51.972;4.624;2023-07-20T11:33:08;3.22;;;0.55;;
35150;SDS011;55720;51.972;4.624;2023-07-20T11:35:41;0.55;;;0.40;;
35150;SDS011;55720;51.972;4.624;2023-07-20T11:38:07;0.85;;;0.40;;
35150;SDS011;55720;51.972;4.624;2023-07-20T11:40:32;2.05;;;0.40;;
35150;SDS011;55720;51.972;4.624;2023-07-20T11:42:58;1.35;;;0.40;;
35150;SDS011;55720;51.972;4.624;2023-07-20T11:45:23;0.55;;;0.45;;
35150;SDS011;55720;51.972;4.624;2023-07-20T11:47:50;0.60;;;0.60;;
35150;SDS011;55720;51.972;4.624;2023-07-20T11:50:15;1.23;;;0.50;;
35150;SDS011;55720;51.972;4.624;2023-07-20T11:52:41;1.45;;;0.50;;
35150;SDS011;55720;51.972;4.624;2023-07-20T11:55:06;1.03;;;0.60;;
35150;SDS011;55720;51.972;4.624;2023-07-20T11:57:32;1.35;;;0.40;;
35150;SDS011;55720;51.972;4.624;2023-07-20T12:00:02;1.58;;;0.40;;
35150;SDS011;55720;51.972;4.624;2023-07-20T12:02:30;2.20;;;0.55;;
35150;SDS011;55720;51.972;4.624;2023-07-20T12:04:56;1.95;;;0.60;;
35150;SDS011;55720;51.972;4.624;2023-07-20T12:07:21;0.50;;;0.30;;
35150;SDS011;55720;51.972;4.624;2023-07-20T12:10:06;1.35;;;0.50;;
35150;SDS011;55720;51.972;4.624;2023-07-20T12:12:32;0.40;;;0.40;;
35150;SDS011;55720;51.972;4.624;2023-07-20T12:15:11;1.85;;;0.40;;
35150;SDS011;55720;51.972;4.624;2023-07-20T12:17:41;0.73;;;0.40;;
35150;SDS011;55720;51.972;4.624;2023-07-20T12:20:07;2.75;;;0.60;;
35150;SDS011;55720;51.972;4.624;2023-07-20T12:22:37;1.95;;;0.38;;
35150;SDS011;55720;51.972;4.624;2023-07-20T12:25:05;2.30;;;0.30;;
35150;SDS011;55720;51.972;4.624;2023-07-20T12:27:30;3.22;;;0.47;;
35150;SDS011;55720;51.972;4.624;2023-07-20T12:29:55;1.03;;;0.50;;
35150;SDS011;55720;51.972;4.624;2023-07-20T12:32:22;0.60;;;0.40;;
35150;SDS011;55720;51.972;4.624;2023-07-20T12:34:47;0.75;;;0.50;;
35150;SDS011;55720;51.972;4.624;2023-07-20T12:37:13;1.40;;;0.53;;
35150;SDS011;55720;51.972;4.624;2023-07-20T12:39:38;0.80;;;0.40;;
35150;SDS011;55720;51.972;4.624;2023-07-20T12:42:04;0.65;;;0.50;;
35150;SDS011;55720;51.972;4.624;2023-07-20T12:44:29;0.88;;;0.55;;
35150;SDS011;55720;51.972;4.624;2023-07-20T12:46:55;2.75;;;0.60;;
35150;SDS011;55720;51.972;4.624;2023-07-20T12:49:20;0.88;;;0.40;;
35150;SDS011;55720;51.972;4.624;2023-07-20T12:51:45;0.40;;;0.40;;
35150;SDS011;55720;51.972;4.624;2023-07-20T12:54:10;1.30;;;0.50;;
35150;SDS011;55720;51.972;4.624;2023-07-20T12:56:36;0.95;;;0.40;;
35150;SDS011;55720;51.972;4.624;2023-07-20T12:59:01;2.28;;;0.40;;
35150;SDS011;55720;51.972;4.624;2023-07-20T13:01:28;1.55;;;0.40;;
35150;SDS011;55720;51.972;4.624;2023-07-20T13:03:53;1.63;;;0.40;;
35150;SDS011;55720;51.972;4.624;2023-07-20T13:06:19;1.48;;;0.50;;
35150;SDS011;55720;51.972;4.624;2023-07-20T13:08:45;0.40;;;0.40;;
35150;SDS011;55720;51.972;4.624;2023-07-20T13:11:10;1.63;;;0.57;;
35150;SDS011;55720;51.972;4.624;2023-07-20T13:13:35;4.23;;;0.50;;
35150;SDS011;55720;51.972;4.624;2023-07-20T13:16:00;0.73;;;0.30;;
35150;SDS011;55720;51.972;4.624;2023-07-20T13:18:25;2.43;;;0.40;;
35150;SDS011;55720;51.972;4.624;2023-07-20T13:20:51;2.33;;;0.40;;
35150;SDS011;55720;51.972;4.624;2023-07-20T13:23:16;0.60;;;0.60;;
35150;SDS011;55720;51.972;4.624;2023-07-20T13:25:41;0.40;;;0.40;;
35150;SDS011;55720;51.972;4.624;2023-07-20T13:28:07;0.80;;;0.60;;
35150;SDS011;55720;51.972;4.624;2023-07-20T13:30:33;0.63;;;0.43;;
35150;SDS011;55720;51.972;4.624;2023-07-20T13:32:58;2.42;;;0.40;;
35150;SDS011;55720;51.972;4.624;2023-07-20T13:35:23;0.77;;;0.47;;
35150;SDS011;55720;51.972;4.624;2023-07-20T13:37:49;0.93;;;0.93;;
35150;SDS011;55720;51.972;4.624;2023-07-20T13:40:15;1.20;;;0.40;;
35150;SDS011;55720;51.972;4.624;2023-07-20T13:42:42;2.38;;;0.40;;
35150;SDS011;55720;51.972;4.624;2023-07-20T13:45:07;0.70;;;0.43;;
35150;SDS011;55720;51.972;4.624;2023-07-20T13:47:32;0.70;;;0.60;;
35150;SDS011;55720;51.972;4.624;2023-07-20T13:49:57;1.87;;;0.50;;
35150;SDS011;55720;51.972;4.624;2023-07-20T13:52:23;1.80;;;0.50;;
35150;SDS011;55720;51.972;4.624;2023-07-20T13:54:48;1.70;;;0.40;;
35150;SDS011;55720;51.972;4.624;2023-07-20T13:57:14;2.65;;;0.38;;
35150;SDS011;55720;51.972;4.624;2023-07-20T13:59:40;1.63;;;0.30;;
35150;SDS011;55720;51.972;4.624;2023-07-20T14:02:05;0.77;;;0.50;;
35150;SDS011;55720;51.972;4.624;2023-07-20T14:04:30;0.35;;;0.30;;
35150;SDS011;55720;51.972;4.624;2023-07-20T14:06:55;1.33;;;0.30;;
35150;SDS011;55720;51.972;4.624;2023-07-20T14:09:21;1.13;;;0.40;;
35150;SDS011;55720;51.972;4.624;2023-07-20T14:11:46;0.38;;;0.30;;
35150;SDS011;55720;51.972;4.624;2023-07-20T14:14:11;0.30;;;0.30;;
35150;SDS011;55720;51.972;4.624;2023-07-20T14:16:36;1.97;;;0.50;;
35150;SDS011;55720;51.972;4.624;2023-07-20T14:19:02;0.77;;;0.50;;
35150;SDS011;55720;51.972;4.624;2023-07-20T14:21:27;2.03;;;0.40;;
35150;SDS011;55720;51.972;4.624;2023-07-20T14:23:53;0.40;;;0.40;;
35150;SDS011;55720;51.972;4.624;2023-07-20T14:26:19;0.40;;;0.40;;
35150;SDS011;55720;51.972;4.624;2023-07-20T14:28:44;0.38;;;0.38;;
35150;SDS011;55720;51.972;4.624;2023-07-20T14:31:09;0.40;;;0.35;;
35150;SDS011;55720;51.972;4.624;2023-07-20T14:33:35;0.33;;;0.30;;
35150;SDS011;55720;51.972;4.624;2023-07-20T14:36:00;2.92;;;0.50;;
35150;SDS011;55720;51.972;4.624;2023-07-20T14:38:27;1.13;;;0.50;;
35150;SDS011;55720;51.972;4.624;2023-07-20T14:40:52;0.63;;;0.35;;
35150;SDS011;55720;51.972;4.624;2023-07-20T14:43:18;2.22;;;0.40;;
35150;SDS011;55720;51.972;4.624;2023-07-20T14:45:43;3.10;;;0.30;;
35150;SDS011;55720;51.972;4.624;2023-07-20T14:48:09;0.30;;;0.30;;
35150;SDS011;55720;51.972;4.624;2023-07-20T14:50:35;0.73;;;0.30;;
35150;SDS011;55720;51.972;4.624;2023-07-20T14:53:00;0.60;;;0.40;;
35150;SDS011;55720;51.972;4.624;2023-07-20T14:55:25;0.93;;;0.30;;
35150;SDS011;55720;51.972;4.624;2023-07-20T14:57:51;0.63;;;0.50;;
35150;SDS011;55720;51.972;4.624;2023-07-20T15:00:16;0.30;;;0.30;;